Decoded Metar for KELZ (WELLSVILLE in NY, USA) (IATA:ELZ) | Meteo·Mobile Aviation Weather
aviador You're here:

KELZ Decoded Metar

WELLSVILLE in NY, USA
Report Time2019-03-22 13:52:00
UTC Time2019-03-22 14:02:16
Flight Rules ifr IFR
Wind300° at 11 Gusting to 22 kt
W.Decomp.*RWY 28: 9.7 kt HW 5.2 kt RCW
W.Rank300° ranks 1
Current wind is above 300° avg. (10.7)
Visibility9656 m
Phenomena:Mist
Clouds:Overcast 009 Hf
Ceiling900 ft
Temp-1°C (ISA -12)
Dew Point-1°C (100% RH)
AAT-7.1°C
QNH1001 hPa
Density Alt1,181 ft
Elevation2,119 ft
Report Wrong Elevation
Raw Report
KELZ 221352Z AUTO 30011G22KT 6SM UP BR OVC009 M01/M01 A2956 RMK
AO2 UPB38 CIG 008V013 P0000 $=

Extra information for KELZ:More info

Metar Taf Metar & Taf Last 4 Metars F.Rules Stats Wind Profile Meteogram Temp Stats Airport Information Weather charts Add Link Nearby VenuesMetar ALERT Operation Metar Decoded Social comments

AIRNAV info for KELZ